Elk Ridge, Utah
Current Conditions -  °F | °C
As of 5:15 AM on Thursday 29 Jan 2015 (Local Time) from KPVU Reporting Station
Clear Clear  
Wind Chill: 28°   Ceiling: Unl
Heat Index: 28°   Visibility: 2mi
Dew Point: 27°   Wind: 0mph
Humidity: 93%   Direction: NA
Pressure: 30.37"   Gusts: NA
Location:  40.0019°N, 111.732°W
Report Text: KPVU 291215Z AUTO 00000KT 2SM CLR M02/M03 A3037 RMK AO1
Loading
Personal Weather Stations






























Interactive Weather Map New forecast layout! Learn more

10-Day Weather Forecast

Advertisements
Track Severe Weather on mobile